createdAt,value
2022-11-24T00:01:25.371Z,99602.78
2022-11-24T00:03:58.288Z,99622.31
2022-11-24T00:06:26.187Z,99620.06
2022-11-24T00:08:53.986Z,99613.41
2022-11-24T00:11:29.751Z,99625.94
2022-11-24T00:13:58.322Z,99618.66
2022-11-24T00:16:31.116Z,99629.63
2022-11-24T00:19:00.416Z,99629.38
2022-11-24T00:21:31.979Z,99626.84
2022-11-24T00:24:00.458Z,99622.66
2022-11-24T00:26:30.669Z,99623.78
2022-11-24T00:29:01.863Z,99624.81
2022-11-24T00:31:35.348Z,99633.81
2022-11-24T00:34:05.430Z,99627.88
2022-11-24T00:36:35.979Z,99638.56
2022-11-24T00:39:06.446Z,99640.44
2022-11-24T00:41:34.046Z,99640.56
2022-11-24T00:44:01.453Z,99641.47
2022-11-24T00:46:28.966Z,99646.28
2022-11-24T00:48:57.795Z,99647.19
2022-11-24T00:51:28.818Z,99657.03
2022-11-24T00:53:57.914Z,99650.00
2022-11-24T00:56:26.179Z,99654.44
2022-11-24T00:58:53.999Z,99651.31
2022-11-24T01:01:24.466Z,99652.09
2022-11-24T01:03:52.381Z,99652.22
2022-11-24T01:06:22.000Z,99653.19
2022-11-24T01:08:49.486Z,99659.69
2022-11-24T01:11:28.491Z,99671.66
2022-11-24T01:13:58.657Z,99665.75
2022-11-24T01:16:33.843Z,99670.34
2022-11-24T01:19:01.745Z,99673.69
2022-11-24T01:21:30.029Z,99679.16
2022-11-24T01:23:57.761Z,99679.53
2022-11-24T01:26:25.358Z,99680.56
2022-11-24T01:28:57.780Z,99681.66
2022-11-24T01:31:27.297Z,99680.81
2022-11-24T01:33:55.666Z,99673.13
2022-11-24T01:36:23.146Z,99687.47
2022-11-24T01:38:50.742Z,99684.28
2022-11-24T01:41:20.831Z,99693.19
2022-11-24T01:43:51.163Z,99692.63
2022-11-24T01:47:15.560Z,99679.44
2022-11-24T01:49:43.106Z,99677.97
2022-11-24T01:52:29.312Z,99685.03
2022-11-24T01:55:04.079Z,99683.34
2022-11-24T01:57:42.354Z,99691.38
2022-11-24T02:00:13.241Z,99684.56
2022-11-24T02:02:42.208Z,99683.78
2022-11-24T02:05:33.458Z,99685.88
2022-11-24T02:08:02.145Z,99685.25
2022-11-24T02:10:29.984Z,99680.91
2022-11-24T02:13:03.771Z,99669.72
2022-11-24T02:15:33.553Z,99662.66
2022-11-24T02:18:00.648Z,99662.78
2022-11-24T02:20:27.975Z,99673.31
2022-11-24T02:23:03.827Z,99678.59
2022-11-24T02:25:36.923Z,99680.00
2022-11-24T02:28:10.620Z,99690.72
2022-11-24T02:30:41.172Z,99681.19
2022-11-24T02:33:12.080Z,99687.56
2022-11-24T02:35:40.800Z,99681.56
2022-11-24T02:38:12.601Z,99679.91
2022-11-24T02:40:43.634Z,99687.25
2022-11-24T02:43:22.344Z,99679.50
2022-11-24T02:45:51.490Z,99678.56
2022-11-24T02:48:18.765Z,99680.28
2022-11-24T02:50:46.195Z,99680.16
2022-11-24T02:53:13.478Z,99683.53
2022-11-24T02:55:40.903Z,99680.72
2022-11-24T02:58:07.937Z,99666.75
2022-11-24T03:00:36.558Z,99664.88
2022-11-24T03:03:04.291Z,99678.22
2022-11-24T03:05:33.560Z,99675.63
2022-11-24T03:08:00.555Z,99677.50
2022-11-24T03:10:29.303Z,99683.94
2022-11-24T03:12:56.716Z,99675.50
2022-11-24T03:15:26.413Z,99676.75
2022-11-24T03:17:56.099Z,99664.25
2022-11-24T03:20:23.989Z,99682.06
2022-11-24T03:22:53.503Z,99672.78
2022-11-24T03:25:21.179Z,99686.91
2022-11-24T03:27:48.220Z,99689.13
2022-11-24T03:30:17.253Z,99693.72
2022-11-24T03:32:44.346Z,99684.09
2022-11-24T03:35:13.427Z,99683.19
2022-11-24T03:37:40.326Z,99682.59
2022-11-24T03:40:08.475Z,99695.63
2022-11-24T03:42:35.676Z,99707.91
2022-11-24T03:45:29.923Z,99704.34
2022-11-24T03:47:52.399Z,99715.78
2022-11-24T03:50:19.756Z,99720.28
2022-11-24T03:52:46.668Z,99716.78
2022-11-24T03:55:14.216Z,99723.91
2022-11-24T03:57:42.673Z,99721.34
2022-11-24T04:00:11.981Z,99723.06
2022-11-24T04:02:42.549Z,99731.19
2022-11-24T04:05:13.209Z,99720.88
2022-11-24T04:07:40.301Z,99730.44
2022-11-24T04:10:09.040Z,99731.66
2022-11-24T04:12:45.228Z,99729.13
2022-11-24T04:15:21.177Z,99735.34
2022-11-24T04:17:49.440Z,99726.75
2022-11-24T04:20:17.470Z,99739.56
2022-11-24T04:22:44.657Z,99741.00
2022-11-24T04:25:17.561Z,99747.03
2022-11-24T04:27:46.044Z,99749.28
2022-11-24T04:30:13.888Z,99752.41
2022-11-24T04:32:40.901Z,99754.47
2022-11-24T04:35:08.803Z,99759.94
2022-11-24T04:37:35.870Z,99765.75
2022-11-24T04:40:04.401Z,99764.31
2022-11-24T04:42:31.528Z,99762.94
2022-11-24T04:44:59.005Z,99761.38
2022-11-24T04:47:26.634Z,99759.75
2022-11-24T04:49:54.959Z,99778.19
2022-11-24T04:52:23.324Z,99775.38
2022-11-24T04:54:51.480Z,99778.94
2022-11-24T04:57:21.953Z,99776.69
2022-11-24T04:59:50.069Z,99781.44
2022-11-24T05:02:17.489Z,99779.84
2022-11-24T05:04:45.653Z,99792.09
2022-11-24T05:07:20.701Z,99797.28
2022-11-24T05:10:07.560Z,99792.84
2022-11-24T05:12:58.640Z,99792.00
2022-11-24T05:15:26.638Z,99803.97
2022-11-24T05:17:57.833Z,99801.53
2022-11-24T05:20:26.257Z,99810.06
2022-11-24T05:22:53.462Z,99817.09
2022-11-24T05:25:21.286Z,99803.88
2022-11-24T05:27:48.237Z,99810.81
2022-11-24T05:30:16.742Z,99810.81
2022-11-24T05:32:43.909Z,99807.56
2022-11-24T05:35:12.179Z,99817.94
2022-11-24T05:37:39.838Z,99825.84
2022-11-24T05:40:22.423Z,99818.78
2022-11-24T05:42:53.246Z,99809.34
2022-11-24T05:45:22.273Z,99817.09
2022-11-24T05:47:51.879Z,99831.19
2022-11-24T05:53:33.398Z,99842.66
2022-11-24T05:56:09.388Z,99842.50
2022-11-24T05:58:36.418Z,99840.69
2022-11-24T06:01:06.855Z,99848.75
2022-11-24T06:03:59.668Z,99848.84
2022-11-24T06:06:30.813Z,99854.09
2022-11-24T06:08:58.981Z,99857.59
2022-11-24T06:11:49.737Z,99857.56
2022-11-24T06:14:16.676Z,99860.38
2022-11-24T06:16:44.135Z,99877.00
2022-11-24T06:19:11.779Z,99872.78
2022-11-24T06:21:39.236Z,99887.69
2022-11-24T06:24:06.619Z,99874.63
2022-11-24T06:26:33.983Z,99886.78
2022-11-24T06:29:01.432Z,99881.72
2022-11-24T06:31:29.878Z,99889.63
2022-11-24T06:34:11.850Z,99893.59
2022-11-24T06:36:40.790Z,99883.56
2022-11-24T06:39:08.439Z,99883.66
2022-11-24T06:41:38.783Z,99892.47
2022-11-24T06:44:19.673Z,99902.16
2022-11-24T06:46:47.435Z,99892.84
2022-11-24T06:49:14.522Z,99902.41
2022-11-24T06:51:45.094Z,99894.41
2022-11-24T06:57:03.214Z,99896.63
2022-11-24T06:59:32.551Z,99904.63
2022-11-24T07:02:02.141Z,99909.03
2022-11-24T07:04:32.666Z,99910.84
2022-11-24T07:07:15.321Z,99920.38
2022-11-24T07:09:45.004Z,99918.53
2022-11-24T07:12:11.804Z,99920.03
2022-11-24T07:14:39.113Z,99924.19
2022-11-24T07:17:06.899Z,99925.06
2022-11-24T07:19:34.365Z,99936.31
2022-11-24T07:22:01.514Z,99933.56
2022-11-24T07:24:28.899Z,99937.81
2022-11-24T07:26:56.271Z,99930.00
2022-11-24T07:29:23.653Z,99931.63
2022-11-24T07:31:50.722Z,99928.94
2022-11-24T07:34:18.034Z,99922.81
2022-11-24T07:36:45.267Z,99924.44
2022-11-24T07:39:12.690Z,99924.25
2022-11-24T07:41:39.815Z,99931.38
2022-11-24T07:44:07.353Z,99919.59
2022-11-24T07:46:34.395Z,99922.59
2022-11-24T07:49:01.823Z,99936.66
2022-11-24T07:51:28.831Z,99936.47
2022-11-24T07:54:07.305Z,99930.47
2022-11-24T07:56:35.653Z,99935.78
2022-11-24T07:59:04.406Z,99934.09
2022-11-24T08:01:34.352Z,99939.91
2022-11-24T08:04:03.776Z,99934.75
2022-11-24T08:06:40.849Z,99930.69
2022-11-24T08:09:15.126Z,99943.88
2022-11-24T08:11:42.333Z,99927.41
2022-11-24T08:14:09.657Z,99939.53
2022-11-24T08:16:36.751Z,99932.66
2022-11-24T08:19:04.231Z,99920.34
2022-11-24T08:21:52.870Z,99941.94
2022-11-24T08:27:31.509Z,99938.75
2022-11-24T08:29:59.756Z,99941.19
2022-11-24T08:32:27.377Z,99946.44
2022-11-24T08:34:59.569Z,99952.47
2022-11-24T08:37:32.365Z,99935.34
2022-11-24T08:40:03.251Z,99943.19
2022-11-24T08:42:30.831Z,99952.13
2022-11-24T08:44:59.196Z,99950.19
2022-11-24T08:47:26.657Z,99955.38
2022-11-24T08:49:53.746Z,99938.81
2022-11-24T08:52:29.231Z,99938.00
2022-11-24T08:55:17.299Z,99946.53
2022-11-24T08:57:44.761Z,99954.44
2022-11-24T09:00:14.200Z,99942.88
2022-11-24T09:02:43.031Z,99947.91
2022-11-24T09:05:43.646Z,99953.34
2022-11-24T09:08:01.146Z,99960.44
2022-11-24T09:10:28.808Z,99962.16
2022-11-24T09:12:57.795Z,99955.78
2022-11-24T09:18:25.243Z,99966.19
2022-11-24T09:20:58.627Z,99965.19
2022-11-24T09:23:32.419Z,99967.63
2022-11-24T09:26:10.795Z,99963.81
2022-11-24T09:28:38.207Z,99975.06
2022-11-24T09:31:49.682Z,99960.00
2022-11-24T09:34:20.105Z,99943.31
2022-11-24T09:36:49.584Z,99950.78
2022-11-24T09:42:14.529Z,99954.44
2022-11-24T09:44:55.510Z,99960.41
2022-11-24T09:47:40.874Z,99953.09
2022-11-24T09:50:12.409Z,99960.81
2022-11-24T09:53:08.285Z,99959.25
2022-11-24T09:55:53.938Z,99954.53
2022-11-24T09:58:33.063Z,99947.31
2022-11-24T10:01:00.614Z,99939.19
2022-11-24T10:03:43.769Z,99945.59
2022-11-24T10:06:31.912Z,99940.09
2022-11-24T10:09:21.249Z,99941.66
2022-11-24T10:12:16.268Z,99937.16
2022-11-24T10:15:00.419Z,99935.56
2022-11-24T10:17:49.957Z,99922.53
2022-11-24T10:21:00.596Z,99925.28
2022-11-24T10:24:04.827Z,99942.81
2022-11-24T10:26:47.041Z,99940.22
2022-11-24T10:29:30.597Z,99937.88
2022-11-24T10:35:28.410Z,99937.63
2022-11-24T10:38:25.414Z,99956.75
2022-11-24T10:41:06.193Z,99961.28
2022-11-24T10:46:29.171Z,99954.53
2022-11-24T10:49:04.626Z,99956.47
2022-11-24T10:51:32.969Z,99954.63
2022-11-24T10:54:18.817Z,99940.84
2022-11-24T10:56:51.880Z,99949.44
2022-11-24T10:59:43.615Z,99944.19
2022-11-24T11:02:32.536Z,99947.78
2022-11-24T11:05:28.803Z,99955.88
2022-11-24T11:08:14.416Z,99965.69
2022-11-24T11:10:43.763Z,99942.56
2022-11-24T11:13:30.204Z,99969.91
2022-11-24T11:16:09.937Z,99957.59
2022-11-24T11:18:42.563Z,99945.94
2022-11-24T11:21:34.476Z,99943.81
2022-11-24T11:24:13.171Z,99946.00
2022-11-24T11:26:42.529Z,99955.00
2022-11-24T11:34:55.138Z,99957.75
2022-11-24T11:37:30.061Z,99957.63
2022-11-24T11:40:04.136Z,99953.09
2022-11-24T11:43:03.210Z,99959.19
2022-11-24T11:45:49.559Z,99962.72
2022-11-24T11:48:42.402Z,99977.31
2022-11-24T11:51:25.896Z,99972.94
2022-11-24T11:54:27.770Z,99968.56
2022-11-24T11:57:12.127Z,99971.91
2022-11-24T11:59:48.734Z,99969.31
2022-11-24T12:02:53.840Z,99963.47
2022-11-24T12:05:31.755Z,99961.78
2022-11-24T12:08:28.864Z,99970.47
2022-11-24T12:11:15.549Z,99967.63
2022-11-24T12:14:08.420Z,99966.72
2022-11-24T12:17:03.283Z,99959.72
2022-11-24T12:19:46.826Z,99966.84
2022-11-24T12:22:28.155Z,99967.06
2022-11-24T12:25:14.734Z,99972.47
2022-11-24T12:28:32.261Z,99972.44
2022-11-24T12:31:08.193Z,99972.63
2022-11-24T12:34:01.474Z,99976.97
2022-11-24T12:36:56.391Z,99967.00
2022-11-24T12:39:26.833Z,99976.28
2022-11-24T12:42:22.262Z,99972.50
2022-11-24T12:45:06.377Z,99985.72
2022-11-24T12:47:51.818Z,99981.28
2022-11-24T12:50:23.858Z,99997.00
2022-11-24T12:53:04.461Z,100002.06
2022-11-24T12:55:34.151Z,100003.00
2022-11-24T12:58:17.367Z,100004.03
2022-11-24T13:01:22.487Z,99997.09
2022-11-24T13:04:07.237Z,99998.59
2022-11-24T13:06:44.405Z,100001.91
2022-11-24T13:09:20.589Z,100001.06
2022-11-24T13:12:28.383Z,99996.69
2022-11-24T13:14:55.520Z,99998.63
2022-11-24T13:17:37.128Z,100007.38
2022-11-24T13:20:38.453Z,100019.66
2022-11-24T13:23:22.180Z,100024.97
2022-11-24T13:26:38.888Z,100025.78
2022-11-24T13:29:30.860Z,100028.38
2022-11-24T13:32:01.468Z,100034.50
2022-11-24T13:34:50.362Z,100032.78
2022-11-24T13:37:32.056Z,100033.13
2022-11-24T13:40:23.488Z,100008.00
2022-11-24T13:42:56.436Z,100035.03
2022-11-24T13:45:59.241Z,100025.44
2022-11-24T13:48:29.360Z,100026.34
2022-11-24T13:51:02.034Z,100027.28
2022-11-24T13:56:18.631Z,100029.09
2022-11-24T13:59:04.518Z,100031.81
2022-11-24T14:01:36.995Z,100024.03
2022-11-24T14:04:35.863Z,100027.66
2022-11-24T14:07:12.526Z,100029.50
2022-11-24T14:09:45.822Z,100022.53
2022-11-24T14:12:18.084Z,100025.19
2022-11-24T14:14:52.787Z,100030.50
2022-11-24T14:17:30.189Z,100027.13
2022-11-24T14:20:24.277Z,100029.63
2022-11-24T14:22:56.446Z,100020.94
2022-11-24T14:25:32.327Z,100032.44
2022-11-24T14:28:00.676Z,100029.84
2022-11-24T14:30:27.923Z,100032.56
2022-11-24T14:33:11.384Z,100036.94
2022-11-24T14:35:51.462Z,100023.91
2022-11-24T14:38:19.144Z,100021.13
2022-11-24T14:40:55.685Z,100029.06
2022-11-24T14:46:21.091Z,100038.66
2022-11-24T14:49:02.233Z,100048.25
2022-11-24T14:51:45.013Z,100049.91
2022-11-24T14:54:19.829Z,100053.44
2022-11-24T14:57:22.851Z,100056.97
2022-11-24T15:00:22.709Z,100058.72
2022-11-24T15:02:56.302Z,100063.28
2022-11-24T15:05:26.005Z,100071.13
2022-11-24T15:08:14.052Z,100054.66
2022-11-24T15:10:51.508Z,100065.88
2022-11-24T15:13:24.693Z,100071.31
2022-11-24T15:16:03.362Z,100076.53
2022-11-24T15:18:37.841Z,100065.41
2022-11-24T15:21:05.584Z,100076.69
2022-11-24T15:23:35.194Z,100079.22
2022-11-24T15:26:05.839Z,100084.56
2022-11-24T15:28:33.525Z,100093.34
2022-11-24T15:31:03.957Z,100079.50
2022-11-24T15:33:40.240Z,100094.19
2022-11-24T15:36:14.553Z,100090.00
2022-11-24T15:38:46.589Z,100077.66
2022-11-24T15:41:22.776Z,100078.50
2022-11-24T15:43:51.600Z,100074.09
2022-11-24T15:46:24.978Z,100083.09
2022-11-24T15:48:54.885Z,100084.94
2022-11-24T15:51:26.778Z,100097.25
2022-11-24T15:54:01.162Z,100098.19
2022-11-24T15:56:46.228Z,100102.78
2022-11-24T15:59:20.732Z,100106.34
2022-11-24T16:01:50.076Z,100122.09
2022-11-24T16:04:17.625Z,100107.31
2022-11-24T16:06:44.839Z,100108.09
2022-11-24T16:09:17.318Z,100117.75
2022-11-24T16:11:44.629Z,100117.88
2022-11-24T16:14:12.722Z,100129.97
2022-11-24T16:16:40.939Z,100135.28
2022-11-24T16:19:11.472Z,100131.75
2022-11-24T16:21:40.756Z,100121.59
2022-11-24T16:24:08.884Z,100126.97
2022-11-24T16:26:35.938Z,100130.50
2022-11-24T16:29:05.554Z,100133.03
2022-11-24T16:31:33.087Z,100134.81
2022-11-24T16:34:00.402Z,100131.38
2022-11-24T16:36:28.930Z,100136.63
2022-11-24T16:38:59.740Z,100148.81
2022-11-24T16:41:28.767Z,100137.50
2022-11-24T16:43:56.574Z,100140.19
2022-11-24T16:46:25.151Z,100144.66
2022-11-24T16:49:08.306Z,100152.63
2022-11-24T16:51:37.426Z,100144.97
2022-11-24T16:54:04.959Z,100153.63
2022-11-24T16:56:34.489Z,100160.63
2022-11-24T16:59:10.625Z,100151.91
2022-11-24T17:01:43.168Z,100155.44
2022-11-24T17:04:33.558Z,100157.13
2022-11-24T17:07:02.938Z,100157.97
2022-11-24T17:09:30.652Z,100154.47
2022-11-24T17:11:57.923Z,100166.66
2022-11-24T17:14:26.051Z,100159.75
2022-11-24T17:16:53.328Z,100164.09
2022-11-24T17:19:20.973Z,100155.28
2022-11-24T17:21:48.273Z,100160.59
2022-11-24T17:24:19.586Z,100170.22
2022-11-24T17:26:51.577Z,100178.00
2022-11-24T17:29:19.378Z,100184.94
2022-11-24T17:31:46.783Z,100174.50
2022-11-24T17:34:20.137Z,100179.00
2022-11-24T17:36:47.386Z,100178.25
2022-11-24T17:39:19.136Z,100190.31
2022-11-24T17:41:53.382Z,100186.72
2022-11-24T17:48:07.906Z,100168.31
2022-11-24T17:50:35.039Z,100169.03
2022-11-24T17:53:08.832Z,100180.25
2022-11-24T17:55:36.052Z,100162.88
2022-11-24T17:58:05.677Z,100173.28
2022-11-24T18:00:32.766Z,100162.78
2022-11-24T18:03:01.102Z,100172.44
2022-11-24T18:05:28.237Z,100158.47
2022-11-24T18:07:58.104Z,100160.25
2022-11-24T18:10:25.301Z,100176.91
2022-11-24T18:12:52.758Z,100158.66
2022-11-24T18:15:19.797Z,100164.00
2022-11-24T18:17:47.267Z,100173.84
2022-11-24T18:20:14.398Z,100174.00
2022-11-24T18:23:11.667Z,100180.94
2022-11-24T18:28:32.644Z,100186.31
2022-11-24T18:31:05.658Z,100182.88
2022-11-24T18:33:40.354Z,100177.53
2022-11-24T18:36:12.001Z,100189.75
2022-11-24T18:38:40.151Z,100181.84
2022-11-24T18:41:09.289Z,100197.53
2022-11-24T18:43:43.265Z,100198.56
2022-11-24T18:46:16.123Z,100195.03
2022-11-24T18:48:45.559Z,100200.34
2022-11-24T18:51:15.890Z,100200.25
2022-11-24T18:53:46.143Z,100206.25
2022-11-24T18:56:14.767Z,100209.72
2022-11-24T18:58:42.632Z,100208.03
2022-11-24T19:01:16.057Z,100207.16
2022-11-24T19:03:52.958Z,100217.50
2022-11-24T19:06:22.057Z,100208.00
2022-11-24T19:08:53.491Z,100212.28
2022-11-24T19:11:34.071Z,100224.47
2022-11-24T19:14:05.886Z,100228.78
2022-11-24T19:16:34.004Z,100225.34
2022-11-24T19:19:02.689Z,100230.50
2022-11-24T19:21:31.634Z,100230.38
2022-11-24T19:24:04.534Z,100221.63
2022-11-24T19:26:35.326Z,100222.44
2022-11-24T19:29:03.326Z,100242.66
2022-11-24T19:31:30.920Z,100231.38
2022-11-24T19:34:07.426Z,100231.41
2022-11-24T19:36:36.078Z,100235.81
2022-11-24T19:39:10.703Z,100240.31
2022-11-24T19:41:39.186Z,100241.19
2022-11-24T19:44:09.284Z,100234.19
2022-11-24T19:46:38.833Z,100242.78
2022-11-24T19:49:08.287Z,100239.25
2022-11-24T19:51:50.232Z,100240.16
2022-11-24T19:54:18.410Z,100241.06
2022-11-24T19:56:46.332Z,100243.59
2022-11-24T19:59:17.263Z,100244.47
2022-11-24T20:01:44.636Z,100250.63
2022-11-24T20:04:15.166Z,100244.53
2022-11-24T20:06:47.251Z,100235.81
2022-11-24T20:09:17.036Z,100250.63
2022-11-24T20:11:44.674Z,100246.41
2022-11-24T20:14:13.667Z,100248.19
2022-11-24T20:16:41.589Z,100254.34
2022-11-24T20:19:15.728Z,100254.34
2022-11-24T20:22:03.318Z,100257.88
2022-11-24T20:24:33.812Z,100254.47
2022-11-24T20:27:01.390Z,100257.22
2022-11-24T20:29:29.307Z,100254.63
2022-11-24T20:31:56.798Z,100251.13
2022-11-24T20:34:26.595Z,100254.59
2022-11-24T20:36:55.315Z,100250.31
2022-11-24T20:39:29.067Z,100248.50
2022-11-24T20:41:56.636Z,100247.56
2022-11-24T20:44:27.807Z,100250.22
2022-11-24T20:46:56.970Z,100248.44
2022-11-24T20:52:23.675Z,100237.91
2022-11-24T20:57:33.574Z,100240.56
2022-11-24T21:00:16.902Z,100247.59
2022-11-24T21:02:44.794Z,100241.50
2022-11-24T21:05:12.091Z,100231.09
2022-11-24T21:07:39.609Z,100227.75
2022-11-24T21:10:07.671Z,100256.50
2022-11-24T21:12:35.082Z,100239.94
2022-11-24T21:15:02.164Z,100237.28
2022-11-24T21:17:31.926Z,100259.91
2022-11-24T21:20:01.164Z,100250.31
2022-11-24T21:22:28.927Z,100246.84
2022-11-24T21:24:55.983Z,100247.81
2022-11-24T21:27:23.634Z,100246.13
2022-11-24T21:29:50.739Z,100251.31
2022-11-24T21:32:18.140Z,100245.19
2022-11-24T21:34:45.400Z,100250.34
2022-11-24T21:37:12.752Z,100246.88
2022-11-24T21:39:43.717Z,100245.16
2022-11-24T21:42:11.248Z,100251.19
2022-11-24T21:44:38.298Z,100258.06
2022-11-24T21:47:05.676Z,100250.16
2022-11-24T21:49:32.715Z,100247.59
2022-11-24T21:52:00.091Z,100252.75
2022-11-24T21:54:27.191Z,100261.56
2022-11-24T21:56:54.627Z,100249.41
2022-11-24T21:59:22.508Z,100256.41
2022-11-24T22:01:50.082Z,100251.13
2022-11-24T22:04:21.590Z,100269.34
2022-11-24T22:06:49.122Z,100264.09
2022-11-24T22:09:18.309Z,100270.28
2022-11-24T22:11:46.789Z,100264.16
2022-11-24T22:14:14.032Z,100269.34
2022-11-24T22:16:51.950Z,100269.31
2022-11-24T22:19:21.884Z,100278.06
2022-11-24T22:21:50.097Z,100275.44
2022-11-24T22:24:17.036Z,100266.69
2022-11-24T22:26:44.266Z,100260.59
2022-11-24T22:29:11.203Z,100260.59
2022-11-24T22:31:38.776Z,100257.94
2022-11-24T22:34:06.028Z,100250.16
2022-11-24T22:36:36.788Z,100262.41
2022-11-24T22:39:05.810Z,100259.72
2022-11-24T22:41:35.237Z,100257.88
2022-11-24T22:44:02.616Z,100261.34
2022-11-24T22:46:31.189Z,100250.81
2022-11-24T22:48:59.752Z,100231.75
2022-11-24T22:51:35.405Z,100236.09
2022-11-24T22:54:04.699Z,100250.00
2022-11-24T22:56:37.910Z,100236.97
2022-11-24T22:59:05.232Z,100238.81
2022-11-24T23:01:36.605Z,100250.94
2022-11-24T23:04:08.292Z,100251.78
2022-11-24T23:06:35.948Z,100246.69
2022-11-24T23:09:05.164Z,100243.19
2022-11-24T23:11:38.498Z,100244.84
2022-11-24T23:14:13.753Z,100245.66
2022-11-24T23:16:41.832Z,100247.34
2022-11-24T23:19:09.586Z,100248.19
2022-11-24T23:21:40.678Z,100226.56
2022-11-24T23:24:08.945Z,100239.59
2022-11-24T23:26:38.669Z,100240.44
2022-11-24T23:29:06.703Z,100243.97
2022-11-24T23:31:34.070Z,100238.75
2022-11-24T23:34:04.721Z,100243.91
2022-11-24T23:36:33.456Z,100255.31
2022-11-24T23:39:11.238Z,100265.84
2022-11-24T23:41:38.971Z,100269.34
2022-11-24T23:44:06.432Z,100276.28
2022-11-24T23:46:34.020Z,100275.31
2022-11-24T23:49:00.981Z,100276.19
2022-11-24T23:51:31.968Z,100271.78
2022-11-24T23:54:00.771Z,100283.22
2022-11-24T23:56:33.724Z,100290.22
2022-11-24T23:59:02.390Z,100288.47
